Time;durP1;ratioP1;P1;durP2;ratioP2;P2;SDS_P1;SDS_P2;PMS_P1;PMS_P2;Temp;Humidity;BMP_temperature;BMP_pressure;BME280_temperature;BME280_humidity;BME280_pressure;Samples;Min_cycle;Max_cycle;Signal;HPM_P1;HPM_P2
2023/11/04 00:02:18;;;;;;;;;3.00;3.00;;;;;12.11;82.37;98590.69;5075133;28;45373;-61
2023/11/04 00:04:44;;;;;;;;;2.00;2.00;;;;;12.09;82.86;98587.28;5070729;28;45423;-61
2023/11/04 00:07:09;;;;;;;;;3.75;2.50;;;;;11.97;82.59;98560.44;5086407;27;45836;-61
2023/11/04 00:09:34;;;;;;;;;3.00;2.75;;;;;12.17;82.68;98585.72;5059752;28;46394;-61
2023/11/04 00:12:00;;;;;;;;;2.00;2.00;;;;;12.12;82.32;98568.34;5071685;28;45904;-61
2023/11/04 00:14:25;;;;;;;;;3.75;2.00;;;;;12.17;82.53;98583.06;5059743;28;45251;-61
2023/11/04 00:16:51;;;;;;;;;2.00;2.00;;;;;12.12;82.60;98571.84;5071862;28;45371;-61
2023/11/04 00:19:16;;;;;;;;;3.00;2.25;;;;;12.37;82.41;98607.50;5059690;28;45417;-62
2023/11/04 00:21:41;;;;;;;;;3.50;2.75;;;;;12.05;82.59;98550.06;5059606;28;45363;-61
2023/11/04 00:24:10;;;;;;;;;3.50;3.00;;;;;12.22;82.67;98578.22;5066490;28;45455;-62
2023/11/04 00:26:35;;;;;;;;;3.75;3.75;;;;;12.31;82.69;98591.88;5064468;27;45742;-61
2023/11/04 00:29:01;;;;;;;;;3.50;3.50;;;;;12.16;82.77;98578.69;5058034;28;45525;-61
2023/11/04 00:31:28;;;;;;;;;4.50;2.50;;;;;12.19;82.76;98586.47;5059370;28;45397;-61
2023/11/04 00:33:54;;;;;;;;;0.50;0.50;;;;;12.03;83.18;98567.19;5059535;28;45411;-61
2023/11/04 00:36:19;;;;;;;;;4.00;4.00;;;;;12.07;82.90;98562.47;5059477;28;45373;-61
2023/11/04 00:38:44;;;;;;;;;3.25;2.00;;;;;12.23;83.44;98579.94;5059410;28;46911;-61
2023/11/04 00:41:10;;;;;;;;;3.75;3.25;;;;;12.22;83.02;98572.88;5058990;28;45339;-61
2023/11/04 00:43:36;;;;;;;;;7.25;3.50;;;;;12.13;82.84;98554.84;5061114;28;45921;-61
2023/11/04 00:46:02;;;;;;;;;3.25;3.25;;;;;12.18;83.25;98562.53;5072895;28;45553;-62
2023/11/04 00:48:27;;;;;;;;;3.00;3.00;;;;;12.30;82.99;98579.50;5059296;28;45592;-61
2023/11/04 00:50:53;;;;;;;;;4.25;4.00;;;;;12.32;83.15;98577.56;5059111;28;45252;-61
2023/11/04 00:53:18;;;;;;;;;6.00;4.00;;;;;12.34;82.98;98576.47;5059405;28;45324;-61
2023/11/04 00:55:44;;;;;;;;;4.25;4.00;;;;;12.16;83.01;98548.41;5058821;28;45293;-61
2023/11/04 00:58:09;;;;;;;;;4.75;4.00;;;;;12.08;83.03;98532.06;5061669;28;47205;-61
2023/11/04 01:00:35;;;;;;;;;3.00;2.00;;;;;12.17;82.86;98542.09;5058175;28;45375;-61
2023/11/04 01:03:00;;;;;;;;;4.00;3.25;;;;;12.31;82.80;98554.44;5079516;27;45492;-61
2023/11/04 01:05:26;;;;;;;;;4.25;3.25;;;;;12.25;83.17;98546.88;5079195;28;45572;-62
2023/11/04 01:07:52;;;;;;;;;3.50;2.50;;;;;12.21;82.89;98538.22;5079113;27;46565;-61
2023/11/04 01:10:17;;;;;;;;;6.00;3.00;;;;;12.34;82.93;98562.25;5064137;28;45456;-61
2023/11/04 01:12:43;;;;;;;;;4.00;3.00;;;;;12.05;82.78;98512.63;5079084;28;45457;-61
2023/11/04 01:15:09;;;;;;;;;2.25;2.25;;;;;12.17;82.75;98520.69;5064481;28;46165;-61
2023/11/04 01:17:34;;;;;;;;;3.25;3.00;;;;;12.22;82.89;98529.22;5078593;28;45467;-61
2023/11/04 01:19:59;;;;;;;;;5.00;3.50;;;;;12.16;82.62;98519.84;5067059;28;45446;-61
2023/11/04 01:22:24;;;;;;;;;3.00;3.00;;;;;12.26;82.62;98533.38;5061077;28;45320;-62
2023/11/04 01:24:50;;;;;;;;;3.75;3.00;;;;;12.26;82.40;98536.06;5074771;28;45470;-61
2023/11/04 01:27:15;;;;;;;;;3.50;2.00;;;;;12.32;82.86;98538.28;5082392;27;45398;-61
2023/11/04 01:29:41;;;;;;;;;3.25;3.00;;;;;12.30;82.49;98524.16;5082363;28;46895;-62
2023/11/04 01:32:06;;;;;;;;;4.00;3.00;;;;;12.15;82.70;98495.91;5069169;28;45310;-61
2023/11/04 01:34:32;;;;;;;;;2.25;2.25;;;;;12.21;82.39;98504.31;5082517;27;45462;-61
2023/11/04 01:36:57;;;;;;;;;3.25;2.00;;;;;12.16;82.43;98501.13;5082614;27;45987;-61
2023/11/04 01:39:22;;;;;;;;;4.00;2.00;;;;;11.98;82.37;98462.41;5082485;27;45380;-61
2023/11/04 01:41:48;;;;;;;;;5.75;3.00;;;;;12.34;82.28;98516.75;5082110;27;45307;-61
2023/11/04 01:44:14;;;;;;;;;4.75;3.00;;;;;12.21;82.11;98506.13;5069149;27;45235;-62
2023/11/04 01:46:41;;;;;;;;;2.75;2.75;;;;;12.25;82.20;98502.25;5074322;28;48258;-61
2023/11/04 01:49:07;;;;;;;;;4.50;3.50;;;;;12.05;82.33;98469.84;5075270;28;45401;-61
2023/11/04 01:51:33;;;;;;;;;2.00;2.00;;;;;12.24;82.21;98492.53;5082320;27;45445;-61
2023/11/04 01:53:58;;;;;;;;;5.00;3.00;;;;;12.20;82.08;98491.91;5082162;27;45739;-61
2023/11/04 01:56:30;;;;;;;;;3.00;2.75;;;;;12.33;82.19;98515.91;5081901;27;46231;-61
2023/11/04 01:58:56;;;;;;;;;7.25;2.75;;;;;12.13;82.18;98476.41;5080649;28;45442;-62
2023/11/04 02:01:23;;;;;;;;;4.00;2.75;;;;;12.33;82.33;98520.41;5082418;27;45452;-61
2023/11/04 02:03:48;;;;;;;;;4.00;2.75;;;;;12.23;82.16;98505.06;5081986;27;45534;-61
2023/11/04 02:06:14;;;;;;;;;3.50;2.50;;;;;12.24;82.14;98508.56;5081759;27;46216;-61
2023/11/04 02:08:40;;;;;;;;;2.75;2.75;;;;;12.16;82.01;98497.59;5080591;27;45360;-61
2023/11/04 02:11:05;;;;;;;;;4.00;2.00;;;;;12.04;82.28;98480.63;5082066;27;46007;-61
2023/11/04 02:13:31;;;;;;;;;3.00;2.00;;;;;12.12;82.14;98486.28;5081691;27;45417;-61
2023/11/04 02:15:57;;;;;;;;;2.50;2.50;;;;;12.03;82.01;98468.25;5081897;28;45863;-62
2023/11/04 02:18:22;;;;;;;;;3.75;1.50;;;;;12.05;82.12;98456.47;5081711;27;45280;-61
2023/11/04 02:20:51;;;;;;;;;4.00;4.00;;;;;12.01;82.33;98444.31;5073842;27;45645;-61
2023/11/04 02:23:17;;;;;;;;;3.25;3.00;;;;;11.91;82.09;98413.88;5075521;28;45413;-61
2023/11/04 02:25:42;;;;;;;;;5.75;2.00;;;;;12.17;82.04;98451.16;5072735;28;46980;-61
2023/11/04 02:28:07;;;;;;;;;4.00;1.75;;;;;11.99;81.97;98414.13;5087700;27;45566;-61
2023/11/04 02:30:33;;;;;;;;;3.75;2.25;;;;;11.97;81.95;98409.88;5060888;28;45499;-61
2023/11/04 02:32:58;;;;;;;;;5.50;4.00;;;;;12.05;81.94;98418.19;5061376;28;45340;-61
2023/11/04 02:35:25;;;;;;;;;1.75;1.75;;;;;12.12;81.86;98421.25;5061132;28;46395;-61
2023/11/04 02:37:50;;;;;;;;;3.00;3.00;;;;;12.00;81.85;98397.13;5061204;28;45260;-61
2023/11/04 02:40:16;;;;;;;;;3.75;2.00;;;;;12.05;81.87;98402.97;5061282;28;45596;-61
2023/11/04 02:42:41;;;;;;;;;2.50;2.25;;;;;12.11;81.77;98404.34;5062499;28;45474;-61
2023/11/04 02:45:07;;;;;;;;;3.50;3.00;;;;;11.87;81.76;98370.44;5060896;28;45395;-61
2023/11/04 02:47:32;;;;;;;;;3.00;2.00;;;;;11.86;82.10;98374.09;5063626;28;46373;-61
2023/11/04 02:49:58;;;;;;;;;6.00;2.75;;;;;11.86;81.92;98366.06;5061268;28;45278;-61
2023/11/04 02:52:24;;;;;;;;;3.50;3.50;;;;;11.90;81.81;98364.00;5061141;28;45365;-61
2023/11/04 02:54:49;;;;;;;;;2.50;2.00;;;;;11.86;82.00;98347.38;5060598;28;45319;-61
2023/11/04 02:57:15;;;;;;;;;2.25;2.00;;;;;11.85;81.93;98353.66;5073175;28;45666;-62
2023/11/04 02:59:40;;;;;;;;;4.00;2.00;;;;;12.06;81.67;98398.47;5061043;28;45484;-61
2023/11/04 03:02:06;;;;;;;;;3.75;2.75;;;;;11.85;82.19;98339.47;5070099;28;45485;-61
2023/11/04 03:04:32;;;;;;;;;1.00;0.75;;;;;11.64;81.92;98318.75;5059491;28;47183;-61
2023/11/04 03:06:57;;;;;;;;;1.50;1.50;;;;;11.92;81.91;98356.75;5060600;28;45391;-61
2023/11/04 03:09:23;;;;;;;;;3.50;3.00;;;;;11.84;81.95;98361.78;5060933;28;45420;-61
2023/11/04 03:11:48;;;;;;;;;4.50;1.25;;;;;11.76;82.13;98350.81;5060687;28;45358;-61
2023/11/04 03:14:14;;;;;;;;;4.25;2.00;;;;;11.67;82.17;98315.81;5060350;28;46295;-61
2023/11/04 03:16:39;;;;;;;;;1.75;1.75;;;;;11.75;82.54;98323.25;5060772;28;45478;-61
2023/11/04 03:19:05;;;;;;;;;3.00;3.00;;;;;11.83;82.30;98338.72;5067590;28;45527;-61
2023/11/04 03:21:30;;;;;;;;;3.00;3.00;;;;;11.59;82.20;98296.84;5079450;28;45459;-61
2023/11/04 03:23:56;;;;;;;;;1.25;1.00;;;;;11.79;82.55;98329.22;5080741;27;46200;-61
2023/11/04 03:26:21;;;;;;;;;2.00;2.00;;;;;11.64;82.04;98288.47;5080669;27;45352;-61
2023/11/04 03:28:46;;;;;;;;;1.00;1.00;;;;;11.45;82.25;98271.16;5080642;27;45361;-61
2023/11/04 03:31:11;;;;;;;;;1.25;1.00;;;;;11.61;82.21;98275.34;5080588;27;45813;-61
2023/11/04 03:33:37;;;;;;;;;2.50;2.50;;;;;11.58;82.35;98281.78;5066781;27;45327;-61
2023/11/04 03:36:03;;;;;;;;;2.25;2.00;;;;;11.76;82.29;98300.91;5066223;28;45415;-62
2023/11/04 03:38:28;;;;;;;;;3.00;2.00;;;;;11.66;82.53;98276.72;5078380;28;45407;-61
2023/11/04 03:40:54;;;;;;;;;2.50;2.00;;;;;11.67;82.56;98266.88;5065772;28;45336;-61
2023/11/04 03:43:20;;;;;;;;;2.00;2.00;;;;;11.72;82.59;98271.88;5072858;28;46150;-61
2023/11/04 03:45:45;;;;;;;;;1.50;1.50;;;;;11.53;82.34;98249.22;5063331;28;45677;-61
2023/11/04 03:48:11;;;;;;;;;2.75;1.50;;;;;11.59;82.74;98243.41;5075867;28;45354;-61
2023/11/04 03:50:36;;;;;;;;;4.00;3.00;;;;;11.58;82.59;98235.53;5071715;28;45510;-61
2023/11/04 03:53:01;;;;;;;;;1.50;1.00;;;;;11.78;82.65;98264.22;5060585;27;45430;-61
2023/11/04 03:55:27;;;;;;;;;1.50;1.00;;;;;11.64;82.86;98241.25;5059717;28;45372;-61
2023/11/04 03:57:53;;;;;;;;;1.75;1.50;;;;;11.76;82.59;98263.50;5059975;28;45440;-61
2023/11/04 04:00:19;;;;;;;;;3.00;2.00;;;;;11.55;82.82;98215.22;5058605;28;45573;-61
2023/11/04 04:02:44;;;;;;;;;2.50;2.50;;;;;11.55;83.17;98219.72;5059672;28;46109;-61
2023/11/04 04:05:10;;;;;;;;;1.75;1.75;;;;;11.47;82.98;98198.94;5059942;28;45405;-61
2023/11/04 04:07:35;;;;;;;;;3.00;3.00;;;;;11.63;83.20;98195.94;5059781;28;45713;-61
2023/11/04 04:10:01;;;;;;;;;3.75;3.25;;;;;11.45;83.66;98172.34;5059641;28;45502;-61
2023/11/04 04:12:26;;;;;;;;;2.00;1.50;;;;;11.62;83.40;98189.72;5058217;28;47336;-61
2023/11/04 04:14:52;;;;;;;;;3.50;3.00;;;;;11.72;83.54;98192.53;5067459;28;45399;-61
2023/11/04 04:17:17;;;;;;;;;2.75;2.75;;;;;11.31;83.70;98109.31;5058494;28;46171;-61
2023/11/04 04:19:43;;;;;;;;;5.00;3.00;;;;;11.49;83.68;98125.72;5057887;28;45348;-61
2023/11/04 04:22:08;;;;;;;;;2.75;2.75;;;;;11.51;83.95;98114.94;5078482;28;45359;-61
2023/11/04 04:24:34;;;;;;;;;4.50;3.25;;;;;11.55;83.65;98121.72;5078470;28;45296;-61
2023/11/04 04:26:59;;;;;;;;;3.00;2.00;;;;;11.70;83.65;98141.03;5079771;27;45457;-61
2023/11/04 04:29:27;;;;;;;;;3.50;2.00;;;;;11.62;83.61;98111.41;5079581;27;45489;-61
2023/11/04 04:31:53;;;;;;;;;2.75;1.50;;;;;11.61;83.87;98099.88;5064281;28;46432;-61
2023/11/04 04:34:18;;;;;;;;;2.75;2.00;;;;;11.75;83.79;98116.63;5079749;27;45581;-62
2023/11/04 04:36:45;;;;;;;;;4.25;2.50;;;;;11.66;83.87;98091.47;5079841;27;45436;-61
2023/11/04 04:39:11;;;;;;;;;1.00;1.00;;;;;11.78;83.75;98100.38;5078585;28;45551;-61
2023/11/04 04:41:36;;;;;;;;;2.75;2.00;;;;;11.45;83.47;98027.25;5079326;27;45718;-61
2023/11/04 04:44:02;;;;;;;;;4.50;2.00;;;;;11.65;83.57;98063.91;5067411;28;48447;-61
2023/11/04 04:46:29;;;;;;;;;3.00;2.00;;;;;11.75;83.82;98081.91;5076503;28;45513;-61
2023/11/04 04:48:54;;;;;;;;;3.50;1.00;;;;;11.62;83.69;98056.13;5079661;27;45550;-61
2023/11/04 04:51:20;;;;;;;;;2.00;2.00;;;;;11.59;83.89;98028.81;5059478;28;46341;-61
2023/11/04 04:53:45;;;;;;;;;2.00;1.75;;;;;11.60;83.25;98020.66;5070529;28;45371;-62
2023/11/04 04:56:13;;;;;;;;;2.75;2.25;;;;;11.76;83.47;98043.50;5079332;27;45379;-61
2023/11/04 04:58:39;;;;;;;;;4.25;2.00;;;;;11.80;83.49;98064.50;5079303;27;45370;-61
2023/11/04 05:01:04;;;;;;;;;2.00;1.00;;;;;11.69;83.72;98040.47;5079205;28;46464;-61
2023/11/04 05:03:30;;;;;;;;;1.50;0.50;;;;;11.66;83.81;98038.03;5079352;27;45374;-61
2023/11/04 05:05:55;;;;;;;;;3.50;1.75;;;;;11.57;84.17;98006.72;5079241;27;45428;-64
2023/11/04 05:08:21;;;;;;;;;2.50;1.50;;;;;11.48;83.80;97990.44;5077970;28;45510;-61
2023/11/04 05:10:46;;;;;;;;;3.50;1.50;;;;;11.62;84.01;97993.84;5078951;27;46202;-61
2023/11/04 05:13:12;;;;;;;;;2.75;1.25;;;;;11.70;83.78;98017.28;5079177;27;45329;-61
2023/11/04 05:15:37;;;;;;;;;2.00;1.00;;;;;11.61;83.98;98032.19;5079035;27;45316;-61
2023/11/04 05:18:02;;;;;;;;;1.50;1.00;;;;;11.77;83.83;98058.56;5079237;27;45465;-62
2023/11/04 05:20:28;;;;;;;;;2.00;1.75;;;;;11.55;84.25;98016.69;5078962;27;45406;-62
2023/11/04 05:22:53;;;;;;;;;2.00;0.75;;;;;11.52;84.38;97993.72;5079208;27;45371;-61
2023/11/04 05:25:18;;;;;;;;;3.00;1.25;;;;;11.39;84.86;97969.81;5060233;28;45341;-61
2023/11/04 05:27:45;;;;;;;;;2.00;0.50;;;;;11.52;84.45;98000.91;5069534;28;45332;-61
2023/11/04 05:30:11;;;;;;;;;2.50;1.25;;;;;11.61;85.34;98009.03;5078668;28;46192;-61
2023/11/04 05:32:36;;;;;;;;;3.75;1.00;;;;;11.66;85.38;98008.63;5067763;27;45643;-61
2023/11/04 05:35:02;;;;;;;;;3.25;1.00;;;;;11.55;85.73;97992.63;5076834;28;45403;-61
2023/11/04 05:37:27;;;;;;;;;3.50;2.00;;;;;11.43;86.13;97983.78;5078999;28;45449;-61
2023/11/04 05:39:52;;;;;;;;;2.50;0.50;;;;;11.45;86.09;97976.50;5059315;28;47821;-61
2023/11/04 05:42:18;;;;;;;;;3.75;1.50;;;;;11.54;85.69;97974.91;5064383;28;45394;-61
2023/11/04 05:44:43;;;;;;;;;1.50;0.50;;;;;11.61;85.77;97984.97;5061176;27;45327;-61
2023/11/04 05:47:08;;;;;;;;;2.50;1.00;;;;;11.31;86.43;97929.53;5062879;28;45336;-61
2023/11/04 05:49:34;;;;;;;;;2.75;1.00;;;;;11.36;86.24;97916.66;5058329;28;46262;-61
2023/11/04 05:51:59;;;;;;;;;2.25;1.00;;;;;11.55;86.57;97947.22;5058587;28;45376;-61
2023/11/04 05:54:25;;;;;;;;;0.50;0.50;;;;;11.34;86.55;97905.22;5058426;28;45473;-61
2023/11/04 05:56:50;;;;;;;;;0.50;0.00;;;;;11.41;86.67;97921.59;5056971;28;45876;-61
2023/11/04 05:59:15;;;;;;;;;4.00;0.50;;;;;11.16;87.24;97880.00;5058160;28;45377;-61
2023/11/04 06:01:41;;;;;;;;;2.25;1.25;;;;;11.42;87.64;97912.63;5058503;28;45295;-61
2023/11/04 06:04:06;;;;;;;;;0.00;0.00;;;;;11.54;87.39;97916.13;5058454;28;45220;-61
2023/11/04 06:06:32;;;;;;;;;0.75;0.00;;;;;11.30;87.32;97853.91;5061198;28;45366;-61
2023/11/04 06:08:57;;;;;;;;;1.00;1.00;;;;;11.38;87.38;97866.63;5060345;28;45481;-61
2023/11/04 06:11:22;;;;;;;;;2.00;1.00;;;;;11.52;88.22;97875.34;5061478;28;45337;-61
2023/11/04 06:13:48;;;;;;;;;1.75;0.75;;;;;11.50;88.08;97870.13;5060147;28;45338;-61
2023/11/04 06:16:13;;;;;;;;;1.50;0.50;;;;;11.54;88.35;97876.06;5061810;28;45248;-61
2023/11/04 06:18:39;;;;;;;;;2.00;0.25;;;;;11.56;88.21;97863.41;5061425;28;45341;-61
2023/11/04 06:21:05;;;;;;;;;2.00;1.00;;;;;11.52;87.82;97840.63;5061540;28;45469;-61
2023/11/04 06:23:30;;;;;;;;;0.25;0.00;;;;;11.43;88.43;97820.88;5073870;28;45507;-61
2023/11/04 06:25:56;;;;;;;;;2.75;1.75;;;;;11.45;87.96;97801.03;5069508;28;45409;-61
2023/11/04 06:28:21;;;;;;;;;2.00;0.00;;;;;11.49;88.19;97796.28;5065066;27;46034;-61
2023/11/04 06:30:46;;;;;;;;;1.00;0.50;;;;;11.34;88.36;97758.34;5061443;28;45429;-61
2023/11/04 06:33:12;;;;;;;;;3.00;1.75;;;;;11.35;88.26;97754.72;5076205;28;45407;-61
2023/11/04 06:35:38;;;;;;;;;1.00;1.00;;;;;11.25;88.45;97743.94;5081649;27;45388;-61
2023/11/04 06:38:03;;;;;;;;;1.75;0.50;;;;;11.29;88.47;97749.88;5081369;27;46481;-61
2023/11/04 06:40:28;;;;;;;;;0.25;0.00;;;;;11.28;88.61;97737.53;5081505;27;45393;-61
2023/11/04 06:42:54;;;;;;;;;0.00;0.00;;;;;11.31;88.71;97734.59;5078866;27;45419;-61
2023/11/04 06:45:19;;;;;;;;;1.00;0.00;;;;;11.28;88.38;97724.16;5061233;28;45346;-61
2023/11/04 06:47:45;;;;;;;;;0.50;0.50;;;;;11.48;88.77;97747.38;5064467;28;45902;-61
2023/11/04 06:50:10;;;;;;;;;2.00;0.50;;;;;11.25;88.80;97693.22;5061352;28;45381;-61
2023/11/04 06:52:36;;;;;;;;;2.75;1.00;;;;;11.25;88.82;97701.22;5061029;28;45260;-62
2023/11/04 06:55:02;;;;;;;;;1.50;1.00;;;;;11.20;88.94;97665.22;5060788;28;45370;-61
2023/11/04 06:57:27;;;;;;;;;2.25;0.75;;;;;11.45;88.64;97690.69;5060699;28;46094;-61
2023/11/04 06:59:53;;;;;;;;;0.00;0.00;;;;;11.35;88.95;97668.41;5060989;28;45338;-61
2023/11/04 07:02:19;;;;;;;;;1.00;1.00;;;;;11.40;89.34;97651.03;5061065;28;45342;-61
2023/11/04 07:04:44;;;;;;;;;2.00;1.00;;;;;11.15;89.37;97608.69;5060804;28;45249;-61
2023/11/04 07:07:10;;;;;;;;;1.00;0.00;;;;;11.16;89.32;97602.38;5072884;28;47373;-61
2023/11/04 07:09:35;;;;;;;;;2.50;0.00;;;;;11.15;89.59;97596.19;5060688;28;45409;-61
2023/11/04 07:12:01;;;;;;;;;0.00;0.00;;;;;11.20;89.94;97601.16;5073094;28;45366;-61
2023/11/04 07:14:26;;;;;;;;;1.50;0.00;;;;;11.41;89.87;97618.00;5059273;28;45589;-61
2023/11/04 07:16:54;;;;;;;;;1.25;0.50;;;;;11.16;89.47;97568.53;5072849;28;48221;-61
2023/11/04 07:19:20;;;;;;;;;0.00;0.00;;;;;11.25;90.24;97561.53;5060695;28;45505;-61
2023/11/04 07:21:45;;;;;;;;;1.00;0.00;;;;;11.37;90.24;97567.66;5060545;28;45447;-61
2023/11/04 07:24:11;;;;;;;;;1.00;0.75;;;;;11.37;89.95;97573.00;5068937;28;45624;-61
2023/11/04 07:26:37;;;;;;;;;1.00;1.00;;;;;11.09;89.66;97513.94;5063903;28;45632;-61
2023/11/04 07:29:02;;;;;;;;;1.75;0.00;;;;;11.09;90.14;97500.59;5060444;28;45427;-61
2023/11/04 07:31:29;;;;;;;;;0.00;0.00;;;;;11.34;90.19;97527.84;5060559;28;45244;-61
2023/11/04 07:33:54;;;;;;;;;1.75;0.00;;;;;11.28;90.10;97497.22;5060436;28;45474;-61
2023/11/04 07:36:24;;;;;;;;;3.00;1.00;;;;;11.36;90.21;97516.06;5060412;28;46262;-61
2023/11/04 07:38:51;;;;;;;;;0.00;0.00;;;;;11.22;90.56;97482.53;5060480;28;45437;-61
2023/11/04 07:41:16;;;;;;;;;0.75;0.00;;;;;11.31;90.70;97504.97;5060178;28;45378;-61
2023/11/04 07:43:41;;;;;;;;;0.00;0.00;;;;;11.24;90.43;97477.06;5062603;28;45359;-61
2023/11/04 07:46:07;;;;;;;;;0.00;0.00;;;;;11.17;90.97;97455.41;5072188;28;47151;-61
2023/11/04 07:48:32;;;;;;;;;0.00;0.00;;;;;11.12;90.99;97449.63;5060314;28;45421;-61
2023/11/04 07:50:57;;;;;;;;;0.00;0.00;;;;;11.09;90.89;97442.75;5072520;28;45449;-61
2023/11/04 07:53:23;;;;;;;;;1.00;0.00;;;;;11.28;91.19;97462.50;5059966;28;45256;-61
2023/11/04 07:55:48;;;;;;;;;0.25;0.00;;;;;10.98;91.63;97405.47;5059731;28;45299;-61
2023/11/04 07:58:14;;;;;;;;;1.00;0.00;;;;;11.24;91.71;97437.03;5060012;28;45249;-61
2023/11/04 08:00:39;;;;;;;;;1.00;1.00;;;;;11.07;91.51;97383.28;5060067;28;45439;-61
2023/11/04 08:03:05;;;;;;;;;0.00;0.00;;;;;11.11;91.53;97400.75;5059974;28;45607;-61
2023/11/04 08:05:31;;;;;;;;;0.00;0.00;;;;;11.24;91.63;97442.38;5059614;28;45548;-62
2023/11/04 08:07:56;;;;;;;;;0.25;0.00;;;;;11.02;91.11;97382.03;5059774;28;45288;-61
2023/11/04 08:10:22;;;;;;;;;0.00;0.00;;;;;10.93;91.71;97370.34;5071935;28;45351;-61
2023/11/04 08:12:47;;;;;;;;;1.00;0.00;;;;;10.92;92.13;97368.63;5058551;28;45442;-61
2023/11/04 08:15:13;;;;;;;;;0.00;0.00;;;;;10.93;92.21;97343.66;5058180;28;46733;-61
2023/11/04 08:17:42;;;;;;;;;0.00;0.00;;;;;10.94;92.41;97330.19;5058410;28;45532;-61
2023/11/04 08:20:09;;;;;;;;;0.00;0.00;;;;;11.07;92.51;97331.75;5059811;28;45268;-61
2023/11/04 08:22:39;;;;;;;;;0.00;0.00;;;;;11.18;92.78;97333.47;5067355;28;45443;-61
2023/11/04 08:25:06;;;;;;;;;0.00;0.00;;;;;10.90;92.98;97280.72;5061900;28;48184;-61
2023/11/04 08:27:32;;;;;;;;;0.00;0.00;;;;;10.92;92.03;97288.59;5067416;28;45747;-61
2023/11/04 08:29:57;;;;;;;;;0.00;0.00;;;;;10.99;92.52;97289.72;5063306;27;45506;-62
2023/11/04 08:32:22;;;;;;;;;0.00;0.00;;;;;10.91;92.52;97278.91;5059643;28;45253;-61
2023/11/04 08:34:48;;;;;;;;;0.25;0.00;;;;;11.05;92.51;97315.88;5059195;28;46325;-61
2023/11/04 08:37:13;;;;;;;;;0.00;0.00;;;;;10.81;92.79;97262.88;5059681;28;45252;-61
2023/11/04 08:39:38;;;;;;;;;0.00;0.00;;;;;10.94;93.26;97294.63;5059339;28;45473;-61
2023/11/04 08:42:06;;;;;;;;;0.00;0.00;;;;;11.07;93.74;97302.38;5059572;28;45389;-61
2023/11/04 08:44:32;;;;;;;;;0.00;0.00;;;;;11.02;93.62;97278.78;5060551;28;48077;-61
2023/11/04 08:46:57;;;;;;;;;0.00;0.00;;;;;11.01;93.27;97278.91;5062051;28;45453;-61
2023/11/04 08:49:22;;;;;;;;;1.00;0.00;;;;;11.07;93.45;97278.38;5060285;28;45554;-61
2023/11/04 08:51:48;;;;;;;;;0.50;0.00;;;;;11.10;93.22;97262.06;5079680;27;45515;-61
2023/11/04 08:54:14;;;;;;;;;0.00;0.00;;;;;11.16;93.47;97255.31;5079239;27;46568;-61
2023/11/04 08:56:39;;;;;;;;;0.00;0.00;;;;;11.00;94.05;97231.88;5068731;28;45346;-62
2023/11/04 08:59:05;;;;;;;;;0.00;0.00;;;;;11.27;93.84;97271.22;5087280;27;45414;-62
2023/11/04 09:01:30;;;;;;;;;0.00;0.00;;;;;11.21;94.27;97250.41;5066960;28;45590;-61
2023/11/04 09:03:57;;;;;;;;;0.00;0.00;;;;;11.11;93.93;97221.91;5063201;27;45384;-62
2023/11/04 09:06:22;;;;;;;;;2.00;0.00;;;;;10.99;93.42;97212.31;5058907;28;45315;-61
2023/11/04 09:08:49;;;;;;;;;0.00;0.00;;;;;11.20;94.35;97243.41;5057851;28;45334;-61
2023/11/04 09:11:14;;;;;;;;;0.00;0.00;;;;;11.28;94.83;97257.75;5058959;28;45321;-61
2023/11/04 09:13:39;;;;;;;;;0.75;0.00;;;;;10.89;94.68;97182.13;5070845;28;46881;-62
2023/11/04 09:16:06;;;;;;;;;0.00;0.00;;;;;11.30;94.59;97244.25;5059055;28;45454;-62
2023/11/04 09:18:34;;;;;;;;;0.00;0.00;;;;;11.21;94.92;97213.91;5058872;28;45464;-62
2023/11/04 09:20:59;;;;;;;;;0.00;0.00;;;;;11.12;95.22;97210.22;5058846;28;45537;-61
2023/11/04 09:23:24;;;;;;;;;0.00;0.00;;;;;11.26;95.23;97206.31;5058639;28;46197;-62
2023/11/04 09:25:50;;;;;;;;;0.00;0.00;;;;;11.25;95.93;97199.28;5058735;28;45426;-61
2023/11/04 09:28:15;;;;;;;;;0.00;0.00;;;;;11.22;95.24;97201.41;5058968;28;45308;-61
2023/11/04 09:30:41;;;;;;;;;0.00;0.00;;;;;11.29;95.23;97197.16;5058696;28;45236;-62
2023/11/04 09:33:08;;;;;;;;;0.00;0.00;;;;;11.28;95.56;97203.50;5058568;28;45415;-62
2023/11/04 09:35:34;;;;;;;;;0.00;0.00;;;;;11.44;95.79;97214.47;5058665;28;45618;-61
2023/11/04 09:37:59;;;;;;;;;0.75;0.00;;;;;11.21;96.22;97181.88;5058759;28;45494;-62
2023/11/04 09:40:24;;;;;;;;;0.00;0.00;;;;;11.31;96.01;97185.38;5060037;28;45349;-62
2023/11/04 09:42:50;;;;;;;;;0.00;0.00;;;;;11.55;96.22;97199.28;5061790;28;47580;-61
2023/11/04 09:45:23;;;;;;;;;1.75;0.00;;;;;11.20;96.18;97132.13;5069476;28;45422;-61
2023/11/04 09:47:48;;;;;;;;;0.00;0.00;;;;;11.62;96.77;97176.34;5078557;28;45332;-61
2023/11/04 09:50:14;;;;;;;;;0.00;0.00;;;;;11.36;95.98;97134.22;5082507;27;45248;-62
2023/11/04 09:52:42;;;;;;;;;0.00;0.00;;;;;11.65;96.59;97176.88;5082134;27;46705;-62
2023/11/04 09:55:10;;;;;;;;;0.25;0.25;;;;;11.41;96.58;97131.97;5071068;28;45553;-62
2023/11/04 09:57:36;;;;;;;;;0.00;0.00;;;;;11.73;97.07;97164.63;5079111;28;45346;-61
2023/11/04 10:00:03;;;;;;;;;0.00;0.00;;;;;11.56;97.05;97151.06;5082177;28;45618;-61
2023/11/04 10:02:28;;;;;;;;;0.00;0.00;;;;;11.78;97.06;97181.94;5080744;28;48259;-62
2023/11/04 10:04:54;;;;;;;;;0.00;0.00;;;;;11.71;97.03;97143.44;5082121;27;45429;-62
2023/11/04 10:07:22;;;;;;;;;0.00;0.00;;;;;11.70;96.69;97148.91;5063876;28;45412;-62
2023/11/04 10:09:48;;;;;;;;;0.00;0.00;;;;;11.85;97.26;97164.31;5072114;28;45382;-62
2023/11/04 10:12:14;;;;;;;;;0.00;0.00;;;;;11.79;97.07;97150.69;5063489;28;47419;-62
2023/11/04 10:14:40;;;;;;;;;0.00;0.00;;;;;11.72;97.52;97129.06;5084166;27;45785;-62
2023/11/04 10:17:06;;;;;;;;;0.00;0.00;;;;;11.79;97.38;97114.13;5061770;28;45443;-62
2023/11/04 10:19:33;;;;;;;;;0.75;0.00;;;;;11.90;97.23;97131.00;5070287;28;45288;-62
2023/11/04 10:21:59;;;;;;;;;0.00;0.00;;;;;11.86;97.60;97125.06;5064827;28;45472;-62
2023/11/04 10:24:25;;;;;;;;;1.00;0.25;;;;;11.90;97.57;97125.66;5061374;28;45377;-62
2023/11/04 10:26:50;;;;;;;;;0.00;0.00;;;;;11.98;97.59;97131.97;5061648;28;45286;-62
2023/11/04 10:29:16;;;;;;;;;0.75;0.25;;;;;12.07;97.66;97116.88;5069817;28;45371;-62
2023/11/04 10:31:42;;;;;;;;;0.00;0.00;;;;;11.97;97.85;97092.84;5064868;27;45559;-62
2023/11/04 10:34:09;;;;;;;;;0.00;0.00;;;;;12.08;98.22;97101.66;5061282;28;45377;-62
2023/11/04 10:36:36;;;;;;;;;0.00;0.00;;;;;12.19;98.64;97126.38;5061480;28;45414;-61
2023/11/04 10:39:04;;;;;;;;;0.75;0.75;;;;;12.15;98.44;97095.59;5061436;28;45449;-62
2023/11/04 10:41:53;;;;;;;;;1.00;1.00;;;;;12.35;98.26;97117.72;5060781;28;45631;-62
2023/11/04 10:44:25;;;;;;;;;0.00;0.00;;;;;12.17;98.41;97071.38;5062616;28;45602;-62
2023/11/04 10:47:04;;;;;;;;;0.50;0.00;;;;;12.25;98.35;97058.09;5073806;27;45451;-62
2023/11/04 10:49:38;;;;;;;;;2.00;0.00;;;;;12.42;98.41;97084.00;5061063;28;45291;-63
2023/11/04 10:52:08;;;;;;;;;0.75;0.25;;;;;12.49;98.71;97089.59;5060151;28;46395;-62
2023/11/04 10:54:37;;;;;;;;;0.75;0.50;;;;;12.57;98.85;97097.72;5060784;28;45441;-64
2023/11/04 10:57:13;;;;;;;;;1.00;1.00;;;;;12.38;98.79;97060.41;5061191;28;45414;-62
2023/11/04 11:00:07;;;;;;;;;2.00;1.00;;;;;12.59;99.13;97077.00;5060816;28;45449;-61
2023/11/04 11:02:35;;;;;;;;;0.00;0.00;;;;;12.43;98.92;97058.13;5060791;28;46936;-61
2023/11/04 11:05:02;;;;;;;;;0.75;0.00;;;;;12.42;99.22;97069.81;5069734;28;45370;-62
2023/11/04 11:07:27;;;;;;;;;1.50;1.00;;;;;12.47;99.43;97064.84;5064046;27;45422;-61
2023/11/04 11:09:53;;;;;;;;;2.50;1.00;;;;;12.60;99.45;97093.91;5060595;28;45264;-64
2023/11/04 11:12:22;;;;;;;;;1.00;1.00;;;;;12.75;99.47;97104.94;5060655;28;46562;-64
2023/11/04 11:14:50;;;;;;;;;1.00;1.00;;;;;12.57;99.53;97056.75;5060495;28;45370;-64
2023/11/04 11:17:16;;;;;;;;;4.50;1.00;;;;;12.81;99.99;97096.28;5059437;28;45633;-64
2023/11/04 11:19:51;;;;;;;;;1.00;0.00;;;;;12.64;99.53;97051.63;5070493;28;45386;-64
2023/11/04 11:22:23;;;;;;;;;1.00;1.00;;;;;12.68;100.00;97058.34;5061522;27;45522;-64
2023/11/04 11:24:56;;;;;;;;;2.75;1.25;;;;;12.93;100.00;97068.28;5058959;28;46098;-64
2023/11/04 11:27:25;;;;;;;;;1.50;1.00;;;;;13.04;100.00;97061.00;5068190;28;45751;-64
2023/11/04 11:29:53;;;;;;;;;3.00;2.00;;;;;12.75;100.00;97012.09;5080695;27;45423;-64